Time;durP1;ratioP1;P1;durP2;ratioP2;P2;SDS_P1;SDS_P2;PMS_P1;PMS_P2;Temp;Humidity;BMP_temperature;BMP_pressure;BME280_temperature;BME280_humidity;BME280_pressure;Samples;Min_cycle;Max_cycle;Signal;HPM_P1;HPM_P2
2023/07/23 00:01:47;;;;;;;15.60;9.13;;;16.60;94.10;;;;;;5044336;28;20478;-61
2023/07/23 00:04:15;;;;;;;15.40;8.97;;;16.50;94.40;;;;;;5049113;28;20482;-62
2023/07/23 00:06:42;;;;;;;9.47;8.00;;;16.50;94.40;;;;;;5051724;28;21017;-61
2023/07/23 00:09:09;;;;;;;14.27;9.23;;;16.50;94.50;;;;;;5057381;28;20470;-61
2023/07/23 00:11:36;;;;;;;16.13;11.13;;;16.40;94.50;;;;;;5034765;28;20554;-62
2023/07/23 00:14:03;;;;;;;14.17;10.57;;;16.30;94.80;;;;;;5064872;28;20744;-61
2023/07/23 00:16:30;;;;;;;17.00;12.30;;;16.10;95.10;;;;;;5058583;28;20478;-61
2023/07/23 00:18:57;;;;;;;12.87;8.30;;;16.00;95.20;;;;;;5033089;27;20483;-61
2023/07/23 00:21:25;;;;;;;18.60;12.70;;;16.10;95.00;;;;;;5041123;28;20482;-62
2023/07/23 00:23:52;;;;;;;15.30;9.03;;;16.10;95.20;;;;;;5000683;28;20485;-61
2023/07/23 00:26:18;;;;;;;14.70;11.57;;;16.10;94.80;;;;;;5031078;28;20488;-62
2023/07/23 00:28:45;;;;;;;9.93;8.07;;;16.10;95.00;;;;;;5036450;28;21007;-61
2023/07/23 00:31:12;;;;;;;11.50;9.07;;;16.10;94.70;;;;;;5041601;28;20477;-62
2023/07/23 00:33:39;;;;;;;14.43;10.10;;;16.10;94.60;;;;;;5072986;28;20860;-61
2023/07/23 00:36:06;;;;;;;10.00;8.27;;;16.10;94.70;;;;;;5058080;27;20477;-62
2023/07/23 00:38:34;;;;;;;15.57;10.27;;;16.10;94.50;;;;;;5031640;28;20889;-61
2023/07/23 00:41:01;;;;;;;18.37;9.23;;;16.00;94.50;;;;;;5020055;28;20479;-61
2023/07/23 00:43:28;;;;;;;18.87;12.87;;;16.00;95.30;;;;;;5040130;28;20481;-61
2023/07/23 00:45:55;;;;;;;12.73;9.43;;;15.80;95.70;;;;;;5045967;28;20571;-61
2023/07/23 00:48:22;;;;;;;19.20;12.80;;;15.60;96.00;;;;;;5034306;28;20644;-62
2023/07/23 00:50:49;;;;;;;11.60;8.73;;;15.60;95.80;;;;;;5056291;27;20474;-61
2023/07/23 00:53:16;;;;;;;13.97;9.97;;;15.50;95.80;;;;;;5052302;28;20477;-62
2023/07/23 00:55:44;;;;;;;11.53;8.83;;;15.50;95.80;;;;;;5051667;28;20478;-62
2023/07/23 00:58:11;;;;;;;14.37;9.20;;;15.50;95.80;;;;;;5064466;28;20477;-61
2023/07/23 01:00:38;;;;;;;14.40;10.60;;;15.50;95.60;;;;;;5047877;28;20518;-61
2023/07/23 01:03:05;;;;;;;12.30;9.20;;;15.50;95.50;;;;;;5031528;28;20973;-61
2023/07/23 01:05:40;;;;;;;26.03;11.57;;;15.50;95.90;;;;;;5002153;28;20876;-61
2023/07/23 01:08:08;;;;;;;14.17;10.53;;;15.40;96.30;;;;;;5024853;28;20472;-61
2023/07/23 01:10:36;;;;;;;12.17;9.20;;;15.30;96.30;;;;;;5010789;28;20483;-61
2023/07/23 01:13:06;;;;;;;13.77;9.57;;;15.40;96.00;;;;;;5034556;28;20479;-61
2023/07/23 01:15:34;;;;;;;18.00;11.47;;;15.40;95.90;;;;;;5016328;28;20590;-62
2023/07/23 01:18:03;;;;;;;12.33;9.73;;;15.30;96.10;;;;;;5026045;28;20479;-61
2023/07/23 01:20:31;;;;;;;16.57;11.37;;;15.30;96.00;;;;;;5026073;28;20826;-61
2023/07/23 01:22:59;;;;;;;14.57;10.60;;;15.30;96.00;;;;;;5038106;27;20812;-61
2023/07/23 01:25:26;;;;;;;17.27;10.73;;;15.30;96.00;;;;;;5053583;28;20473;-62
2023/07/23 01:27:53;;;;;;;13.20;9.03;;;15.30;95.80;;;;;;5054555;28;20457;-61
2023/07/23 01:30:21;;;;;;;22.03;10.30;;;15.30;95.80;;;;;;5054870;28;20496;-61
2023/07/23 01:32:49;;;;;;;16.53;11.50;;;15.30;96.00;;;;;;5063933;27;20497;-61
2023/07/23 01:35:17;;;;;;;11.60;9.50;;;15.30;96.30;;;;;;5066840;27;20470;-62
2023/07/23 01:37:47;;;;;;;14.60;10.10;;;13.60;95.30;;;;;;5044601;28;20570;-61
2023/07/23 01:40:15;;;;;;;15.43;9.70;;;15.20;95.80;;;;;;5054484;28;20489;-62
2023/07/23 01:42:44;;;;;;;15.60;9.00;;;15.20;96.30;;;;;;5059027;28;20474;-61
2023/07/23 01:45:11;;;;;;;17.27;10.43;;;15.20;96.20;;;;;;5052494;27;20473;-61
2023/07/23 01:47:38;;;;;;;12.70;9.90;;;16.70;97.40;;;;;;5071074;28;20509;-61
2023/07/23 01:50:06;;;;;;;15.30;11.40;;;15.30;96.40;;;;;;5060374;28;21328;-61
2023/07/23 01:52:33;;;;;;;15.73;11.40;;;15.20;96.20;;;;;;5062086;28;20498;-61
2023/07/23 01:55:00;;;;;;;15.40;11.17;;;15.30;96.60;;;;;;5057200;28;20471;-61
2023/07/23 01:57:28;;;;;;;21.57;13.70;;;15.20;96.50;;;;;;5054120;28;20494;-61
2023/07/23 01:59:55;;;;;;;15.53;10.53;;;15.00;97.10;;;;;;5021972;28;20479;-61
2023/07/23 02:02:22;;;;;;;23.27;14.10;;;15.40;97.40;;;;;;5054382;28;20703;-62
2023/07/23 02:04:49;;;;;;;13.27;10.10;;;15.00;97.10;;;;;;5057740;28;20549;-61
2023/07/23 02:07:16;;;;;;;15.10;10.97;;;15.00;96.90;;;;;;5032170;28;20666;-61
2023/07/23 02:09:43;;;;;;;12.00;9.20;;;15.10;96.90;;;;;;5040316;28;20869;-61
2023/07/23 02:12:10;;;;;;;18.43;11.07;;;15.10;96.80;;;;;;5063182;28;20563;-62
2023/07/23 02:14:38;;;;;;;14.10;9.40;;;15.10;96.70;;;;;;5032956;28;20611;-61
2023/07/23 02:17:06;;;;;;;17.57;11.53;;;15.10;96.60;;;;;;5029732;28;20573;-61
2023/07/23 02:19:33;;;;;;;19.00;11.20;;;15.10;96.70;;;;;;5030175;28;20475;-61
2023/07/23 02:22:00;;;;;;;14.37;10.37;;;15.10;96.60;;;;;;5022454;28;20587;-61
2023/07/23 02:24:26;;;;;;;18.33;12.17;;;15.10;96.50;;;;;;5032597;28;20468;-61
2023/07/23 02:26:53;;;;;;;12.47;9.70;;;15.10;96.50;;;;;;5015418;28;20480;-61
2023/07/23 02:29:20;;;;;;;23.97;12.87;;;14.90;97.00;;;;;;5007466;28;20587;-62
2023/07/23 02:31:48;;;;;;;16.83;10.17;;;14.90;97.20;;;;;;5000010;28;20480;-61
2023/07/23 02:34:15;;;;;;;15.10;10.50;;;14.90;96.80;;;;;;5020516;28;20618;-61
2023/07/23 02:36:45;;;;;;;14.27;10.03;;;14.90;96.60;;;;;;5027694;28;20482;-61
2023/07/23 02:39:12;;;;;;;15.27;10.27;;;14.80;96.60;;;;;;5031759;28;21165;-61
2023/07/23 02:41:39;;;;;;;14.33;10.50;;;14.70;96.80;;;;;;5030591;28;20493;-61
2023/07/23 02:44:06;;;;;;;14.47;10.27;;;14.80;97.20;;;;;;5029500;28;20553;-61
2023/07/23 02:46:33;;;;;;;17.03;12.13;;;14.80;96.60;;;;;;5036283;28;21192;-61
2023/07/23 02:49:02;;;;;;;19.90;13.13;;;14.80;96.80;;;;;;5036073;28;20507;-61
2023/07/23 02:51:29;;;;;;;22.27;14.40;;;14.90;96.90;;;;;;5036841;28;20503;-61
2023/07/23 02:53:56;;;;;;;12.20;9.27;;;14.90;97.40;;;;;;5006485;28;20475;-61
2023/07/23 02:56:22;;;;;;;20.70;13.73;;;14.90;96.70;;;;;;5028788;28;20507;-61
2023/07/23 02:58:49;;;;;;;11.23;8.93;;;14.90;96.70;;;;;;5023950;28;20493;-60
2023/07/23 03:01:16;;;;;;;13.40;10.30;;;14.90;96.60;;;;;;5038509;28;20480;-62
2023/07/23 03:03:47;;;;;;;14.67;10.40;;;14.90;96.60;;;;;;5025331;28;20475;-62
2023/07/23 03:06:16;;;;;;;11.87;9.33;;;14.90;96.70;;;;;;5028655;28;20850;-62
2023/07/23 03:08:43;;;;;;;11.90;9.40;;;14.80;96.90;;;;;;5028774;28;20995;-62
2023/07/23 03:11:10;;;;;;;13.90;9.30;;;14.90;97.00;;;;;;5036046;28;20814;-62
2023/07/23 03:13:36;;;;;;;16.57;11.57;;;14.90;97.40;;;;;;5036740;28;20487;-62
2023/07/23 03:16:04;;;;;;;17.80;10.57;;;14.90;97.70;;;;;;5030674;28;20480;-62
2023/07/23 03:18:31;;;;;;;15.50;10.80;;;14.90;98.00;;;;;;5022757;28;20552;-61
2023/07/23 03:20:57;;;;;;;12.33;9.30;;;14.90;97.60;;;;;;5040132;28;20522;-62
2023/07/23 03:23:26;;;;;;;13.93;11.37;;;14.90;97.20;;;;;;5041559;28;20858;-62
2023/07/23 03:25:53;;;;;;;17.13;9.70;;;15.00;97.50;;;;;;5028022;28;20486;-62
2023/07/23 03:28:19;;;;;;;20.73;11.87;;;15.00;97.50;;;;;;5025268;28;20495;-62
2023/07/23 03:30:46;;;;;;;14.37;8.97;;;15.00;97.50;;;;;;5033531;28;20489;-62
2023/07/23 03:33:13;;;;;;;12.73;9.33;;;15.10;97.40;;;;;;5031517;28;20495;-62
2023/07/23 03:35:40;;;;;;;15.90;9.63;;;15.20;97.60;;;;;;5029834;28;20479;-61
2023/07/23 03:38:07;;;;;;;10.67;7.70;;;15.20;97.30;;;;;;5033210;28;20476;-61
2023/07/23 03:40:35;;;;;;;13.97;9.77;;;15.10;97.40;;;;;;5036283;28;20487;-62
2023/07/23 03:43:06;;;;;;;12.87;9.20;;;15.20;97.40;;;;;;5034633;28;21161;-62
2023/07/23 03:45:33;;;;;;;19.40;10.37;;;15.20;96.90;;;;;;5032607;28;20480;-62
2023/07/23 03:48:00;;;;;;;9.87;7.67;;;15.30;97.30;;;;;;5030238;28;20476;-62
2023/07/23 03:50:27;;;;;;;18.57;11.30;;;15.20;97.30;;;;;;5035710;28;20503;-61
2023/07/23 03:52:54;;;;;;;11.07;8.07;;;15.20;97.90;;;;;;5029465;28;21069;-61
2023/07/23 03:55:21;;;;;;;17.70;12.13;;;15.30;97.70;;;;;;5033112;28;20483;-61
2023/07/23 03:57:49;;;;;;;10.27;7.50;;;15.30;98.30;;;;;;5029413;28;20985;-61
2023/07/23 04:00:16;;;;;;;12.40;8.47;;;15.40;98.60;;;;;;5010276;28;20494;-61
2023/07/23 04:02:43;;;;;;;11.57;8.60;;;15.40;98.60;;;;;;5030743;28;20486;-62
2023/07/23 04:05:10;;;;;;;11.43;8.10;;;15.50;98.80;;;;;;5042881;28;20481;-61
2023/07/23 04:07:37;;;;;;;10.47;7.53;;;15.50;98.80;;;;;;5046334;28;20487;-62
2023/07/23 04:10:04;;;;;;;14.83;8.50;;;15.60;98.50;;;;;;5052610;28;20844;-61
2023/07/23 04:12:33;;;;;;;15.33;8.90;;;15.70;98.60;;;;;;5035323;28;20486;-62
2023/07/23 04:15:03;;;;;;;9.70;7.30;;;15.80;98.40;;;;;;5043913;28;20494;-62
2023/07/23 04:17:30;;;;;;;13.47;10.17;;;15.90;98.40;;;;;;5065097;28;20479;-61
2023/07/23 04:19:57;;;;;;;10.83;8.23;;;15.80;99.00;;;;;;5054282;28;20618;-62
2023/07/23 04:22:24;;;;;;;12.40;8.63;;;15.80;98.90;;;;;;5038018;28;21150;-61
2023/07/23 04:24:51;;;;;;;11.17;7.83;;;15.80;99.20;;;;;;5032805;28;20475;-61
2023/07/23 04:27:17;;;;;;;13.07;9.03;;;15.80;99.10;;;;;;5027241;28;20597;-62
2023/07/23 04:29:44;;;;;;;12.73;8.83;;;15.80;99.10;;;;;;5028119;28;20670;-61
2023/07/23 04:32:13;;;;;;;12.37;8.97;;;16.00;98.60;;;;;;5028433;28;20933;-62
2023/07/23 04:34:40;;;;;;;12.87;8.60;;;16.00;99.00;;;;;;5026222;28;20478;-61
2023/07/23 04:37:09;;;;;;;8.83;6.93;;;16.00;98.70;;;;;;5015040;28;20472;-61
2023/07/23 04:39:36;;;;;;;9.73;7.90;;;16.20;98.40;;;;;;5024521;28;20588;-62
2023/07/23 04:42:03;;;;;;;9.93;7.10;;;16.20;98.20;;;;;;5033908;28;20585;-61
2023/07/23 04:44:30;;;;;;;14.33;10.10;;;16.30;98.10;;;;;;5045823;28;20506;-61
2023/07/23 04:46:57;;;;;;;8.90;7.80;;;16.40;97.90;;;;;;5044716;28;20483;-61
2023/07/23 04:49:25;;;;;;;13.43;9.90;;;16.40;98.00;;;;;;5038525;28;20486;-62
2023/07/23 04:51:52;;;;;;;10.03;6.80;;;16.50;97.90;;;;;;5051119;28;20827;-63
2023/07/23 04:54:19;;;;;;;13.43;9.50;;;16.60;97.80;;;;;;5046060;28;20496;-62
2023/07/23 04:56:46;;;;;;;9.80;7.13;;;16.70;97.60;;;;;;5035443;28;20475;-62
2023/07/23 04:59:13;;;;;;;8.90;7.37;;;16.80;97.60;;;;;;5018670;28;20487;-61
2023/07/23 05:01:39;;;;;;;9.43;6.87;;;16.90;97.40;;;;;;5024079;28;21015;-62
2023/07/23 05:04:06;;;;;;;12.83;8.90;;;17.00;97.40;;;;;;5016178;28;20486;-62
2023/07/23 05:06:34;;;;;;;9.43;8.13;;;17.00;97.60;;;;;;5036885;28;20480;-61
2023/07/23 05:09:01;;;;;;;8.87;7.20;;;17.00;97.40;;;;;;5034284;28;20475;-62
2023/07/23 05:11:28;;;;;;;15.47;9.13;;;17.10;97.30;;;;;;5026361;28;20476;-62
2023/07/23 05:13:55;;;;;;;12.97;7.97;;;17.10;97.50;;;;;;5014895;28;20471;-62
2023/07/23 05:16:22;;;;;;;13.97;9.77;;;17.90;97.50;;;;;;4990782;28;21073;-62
2023/07/23 05:18:49;;;;;;;7.87;6.33;;;17.30;97.20;;;;;;5045770;28;20600;-61
2023/07/23 05:21:16;;;;;;;10.53;7.70;;;17.40;97.30;;;;;;5043048;28;20908;-62
2023/07/23 05:23:44;;;;;;;8.10;5.23;;;17.50;96.90;;;;;;5052424;28;20488;-62
2023/07/23 05:26:11;;;;;;;10.50;7.30;;;17.60;96.70;;;;;;5034562;28;20486;-61
2023/07/23 05:28:38;;;;;;;11.47;6.60;;;17.60;96.90;;;;;;5039123;28;20916;-61
2023/07/23 05:31:05;;;;;;;7.33;5.73;;;17.70;97.10;;;;;;5035419;28;20844;-62
2023/07/23 05:33:31;;;;;;;14.90;8.83;;;17.70;97.60;;;;;;5027558;28;20513;-62
2023/07/23 05:35:58;;;;;;;9.70;6.73;;;17.80;97.80;;;;;;5012663;28;20926;-62
2023/07/23 05:38:26;;;;;;;9.23;7.70;;;17.80;97.20;;;;;;5006534;28;20486;-62
2023/07/23 05:40:56;;;;;;;6.90;6.20;;;17.90;97.50;;;;;;5022175;28;20551;-62
2023/07/23 05:43:23;;;;;;;10.00;7.67;;;17.90;97.40;;;;;;5020318;28;20934;-62
2023/07/23 05:45:50;;;;;;;7.70;6.60;;;18.10;96.80;;;;;;5019732;28;21004;-62
2023/07/23 05:48:17;;;;;;;8.73;6.47;;;18.20;96.90;;;;;;5013803;28;20483;-62
2023/07/23 05:50:44;;;;;;;8.83;6.20;;;18.30;96.80;;;;;;5013068;28;20994;-62
2023/07/23 05:53:11;;;;;;;6.17;5.40;;;18.40;96.80;;;;;;5006849;28;20487;-62
2023/07/23 05:55:38;;;;;;;6.70;5.83;;;18.40;96.90;;;;;;5022593;28;20487;-62
2023/07/23 05:58:07;;;;;;;7.63;6.83;;;18.50;97.00;;;;;;5014752;28;21032;-62
2023/07/23 06:00:33;;;;;;;11.00;5.87;;;18.50;96.70;;;;;;5012532;28;20896;-62
2023/07/23 06:03:00;;;;;;;6.70;4.90;;;18.60;96.50;;;;;;5013206;28;20467;-61
2023/07/23 06:05:27;;;;;;;8.67;7.63;;;18.70;96.60;;;;;;5006167;28;20480;-61
2023/07/23 06:07:54;;;;;;;7.17;6.47;;;18.80;96.30;;;;;;5013595;28;20501;-62
2023/07/23 06:10:21;;;;;;;6.80;6.10;;;18.80;96.50;;;;;;5046564;28;20474;-62
2023/07/23 06:12:48;;;;;;;4.83;4.23;;;18.90;96.20;;;;;;5006652;28;20479;-61
2023/07/23 06:15:16;;;;;;;10.17;5.50;;;18.90;96.00;;;;;;5021498;28;20488;-61
2023/07/23 06:17:43;;;;;;;5.50;5.00;;;18.90;96.10;;;;;;5016511;28;20484;-62
2023/07/23 06:20:10;;;;;;;5.30;4.77;;;19.10;96.10;;;;;;5036191;28;20912;-62
2023/07/23 06:22:37;;;;;;;4.50;4.10;;;19.10;96.00;;;;;;5055920;28;21113;-62
2023/07/23 06:25:04;;;;;;;6.23;5.63;;;19.20;95.90;;;;;;5033290;28;20479;-62
2023/07/23 06:27:31;;;;;;;8.73;6.67;;;19.20;95.90;;;;;;5020834;28;20582;-62
2023/07/23 06:29:58;;;;;;;5.97;5.33;;;19.30;96.10;;;;;;5027084;28;20497;-62
2023/07/23 06:32:26;;;;;;;8.93;6.80;;;19.40;96.00;;;;;;5020904;28;21325;-63
2023/07/23 06:34:53;;;;;;;10.60;4.77;;;19.40;95.60;;;;;;5026393;28;20478;-61
2023/07/23 06:37:20;;;;;;;12.23;6.27;;;19.40;95.40;;;;;;5034546;28;20484;-61
2023/07/23 06:39:47;;;;;;;4.97;4.43;;;19.50;95.90;;;;;;5000896;28;20488;-61
2023/07/23 06:42:13;;;;;;;7.10;5.50;;;19.60;95.80;;;;;;5010938;28;20862;-61
2023/07/23 06:44:42;;;;;;;5.83;4.97;;;19.50;95.50;;;;;;5011915;28;20493;-61
2023/07/23 06:47:09;;;;;;;4.93;4.13;;;19.60;95.60;;;;;;5029766;28;20482;-61
2023/07/23 06:49:37;;;;;;;4.40;4.00;;;19.60;95.70;;;;;;5044382;28;20473;-62
2023/07/23 06:52:05;;;;;;;5.50;4.60;;;19.70;95.50;;;;;;5023298;28;21533;-61
2023/07/23 06:54:32;;;;;;;7.40;5.90;;;19.70;95.30;;;;;;5022603;28;20480;-62
2023/07/23 06:56:59;;;;;;;6.47;4.27;;;20.60;95.60;;;;;;4998539;28;20487;-61
2023/07/23 06:59:26;;;;;;;6.80;6.10;;;19.80;95.50;;;;;;5034837;28;20845;-61
2023/07/23 07:01:53;;;;;;;7.23;5.17;;;19.80;95.50;;;;;;5033200;28;20908;-61
2023/07/23 07:04:20;;;;;;;7.67;5.93;;;20.00;95.90;;;;;;5033473;28;20479;-61
2023/07/23 07:06:48;;;;;;;5.53;4.87;;;20.00;95.70;;;;;;5032093;28;20475;-61
2023/07/23 07:09:15;;;;;;;5.13;4.23;;;20.00;95.50;;;;;;5035213;28;20524;-61
2023/07/23 07:11:42;;;;;;;4.93;4.43;;;20.00;95.30;;;;;;5040178;28;20496;-61
2023/07/23 07:14:09;;;;;;;6.43;5.00;;;20.20;95.40;;;;;;5030749;28;20481;-62
2023/07/23 07:16:35;;;;;;;4.73;4.33;;;20.20;95.60;;;;;;5017789;28;20478;-61
2023/07/23 07:19:02;;;;;;;5.70;4.50;;;20.10;95.00;;;;;;5045734;28;20505;-61
2023/07/23 07:21:29;;;;;;;8.93;7.30;;;20.20;95.20;;;;;;5026522;28;20515;-61
2023/07/23 07:23:57;;;;;;;5.17;4.67;;;20.20;95.00;;;;;;5028778;28;20486;-61
2023/07/23 07:26:24;;;;;;;7.97;6.27;;;20.10;95.00;;;;;;5027569;28;20495;-62
2023/07/23 07:28:52;;;;;;;4.77;3.87;;;20.20;95.10;;;;;;5018831;28;20485;-62
2023/07/23 07:31:18;;;;;;;6.77;5.90;;;20.30;95.00;;;;;;5024427;28;20492;-61
2023/07/23 07:33:45;;;;;;;6.27;5.07;;;20.50;95.20;;;;;;5027917;28;20494;-62
2023/07/23 07:36:12;;;;;;;4.43;4.03;;;20.40;95.10;;;;;;5033067;28;20486;-61
2023/07/23 07:38:39;;;;;;;6.57;4.30;;;20.60;94.50;;;;;;5043271;28;20486;-63
2023/07/23 07:41:07;;;;;;;4.40;3.97;;;20.50;94.70;;;;;;5041407;28;20502;-62
2023/07/23 07:43:34;;;;;;;6.10;5.50;;;20.60;94.70;;;;;;5041447;28;20510;-63
2023/07/23 07:46:03;;;;;;;4.10;3.77;;;20.70;94.70;;;;;;5027876;28;20502;-62
2023/07/23 07:48:31;;;;;;;7.10;4.73;;;20.70;94.70;;;;;;5018453;28;20542;-62
2023/07/23 07:50:59;;;;;;;5.13;4.60;;;20.70;95.10;;;;;;5031457;28;21069;-62
2023/07/23 07:53:26;;;;;;;7.93;7.13;;;20.80;95.00;;;;;;5038488;28;20486;-62
2023/07/23 07:55:53;;;;;;;5.60;3.67;;;21.00;94.80;;;;;;5037093;28;20482;-61
2023/07/23 07:58:24;;;;;;;4.90;4.40;;;21.10;94.40;;;;;;5021061;28;20998;-62
2023/07/23 08:00:53;;;;;;;4.90;4.40;;;21.40;94.80;;;;;;5018767;28;20498;-62
2023/07/23 08:03:20;;;;;;;7.43;5.13;;;21.60;94.00;;;;;;4999562;28;20522;-62
2023/07/23 08:05:47;;;;;;;3.80;3.43;;;21.80;94.40;;;;;;5032538;28;20468;-62
2023/07/23 08:08:18;;;;;;;4.53;4.00;;;22.10;94.30;;;;;;5014007;28;20514;-62
2023/07/23 08:10:46;;;;;;;4.90;4.20;;;22.20;93.80;;;;;;5028440;28;20921;-63
2023/07/23 08:13:15;;;;;;;4.43;4.03;;;22.10;93.30;;;;;;5036292;28;21003;-62
2023/07/23 08:15:44;;;;;;;3.70;3.40;;;22.10;93.50;;;;;;4991709;28;20550;-62
2023/07/23 08:18:11;;;;;;;5.43;4.93;;;22.20;93.70;;;;;;5012566;28;20492;-63
2023/07/23 08:20:39;;;;;;;5.27;4.33;;;22.00;92.90;;;;;;5031021;28;20486;-62
2023/07/23 08:23:07;;;;;;;5.40;3.87;;;22.10;93.40;;;;;;5017605;28;20501;-62
2023/07/23 08:25:35;;;;;;;4.70;4.07;;;22.30;94.10;;;;;;5037382;28;20476;-62
2023/07/23 08:28:02;;;;;;;4.80;4.40;;;22.40;93.30;;;;;;5026348;28;20504;-63
2023/07/23 08:30:30;;;;;;;5.43;4.90;;;22.40;93.30;;;;;;5030238;28;20483;-63
2023/07/23 08:33:00;;;;;;;4.20;3.60;;;22.40;92.70;;;;;;5008577;28;20470;-62
2023/07/23 08:35:28;;;;;;;5.53;5.03;;;22.30;92.90;;;;;;5031336;28;20476;-62
2023/07/23 08:37:56;;;;;;;5.30;4.00;;;22.40;93.10;;;;;;5044158;28;20479;-62
2023/07/23 08:40:25;;;;;;;6.07;5.57;;;22.70;92.90;;;;;;5036848;28;20481;-62
2023/07/23 08:43:18;;;;;;;5.30;4.57;;;22.80;93.20;;;;;;5018063;28;20483;-62
2023/07/23 08:46:10;;;;;;;5.07;4.10;;;22.80;92.40;;;;;;5008889;28;20467;-62
2023/07/23 08:49:11;;;;;;;5.87;3.40;;;22.60;92.20;;;;;;5036603;28;20474;-64
2023/07/23 08:51:46;;;;;;;3.57;3.27;;;22.80;93.10;;;;;;5015237;28;21014;-63
2023/07/23 08:54:14;;;;;;;5.33;4.83;;;22.90;93.00;;;;;;5017134;28;20855;-63
2023/07/23 08:56:42;;;;;;;4.57;4.17;;;22.80;92.10;;;;;;5013832;28;20504;-62
2023/07/23 08:59:10;;;;;;;5.57;4.23;;;23.10;92.70;;;;;;5037682;28;20494;-62
2023/07/23 09:01:38;;;;;;;4.47;3.70;;;23.00;91.50;;;;;;5052527;28;20488;-63
2023/07/23 09:04:08;;;;;;;4.93;4.53;;;23.20;92.20;;;;;;5013687;28;20486;-62
2023/07/23 09:06:36;;;;;;;5.03;4.63;;;23.20;91.40;;;;;;5058688;28;20485;-63
2023/07/23 09:09:05;;;;;;;4.73;4.33;;;23.20;91.00;;;;;;5031441;28;20949;-63
2023/07/23 09:11:32;;;;;;;9.50;4.43;;;23.50;91.60;;;;;;5037701;28;20720;-63
2023/07/23 09:14:00;;;;;;;8.80;4.30;;;23.70;91.30;;;;;;5016602;28;20848;-62
2023/07/23 09:16:27;;;;;;;6.57;4.50;;;24.00;90.10;;;;;;5014782;28;20586;-63
2023/07/23 09:18:57;;;;;;;6.07;3.43;;;24.10;90.10;;;;;;5031933;28;21072;-63
2023/07/23 09:21:26;;;;;;;6.13;5.60;;;24.20;91.10;;;;;;5025238;28;20497;-62
2023/07/23 09:23:54;;;;;;;4.47;3.50;;;24.50;91.40;;;;;;5032750;28;20527;-63
2023/07/23 09:26:22;;;;;;;4.63;4.33;;;24.60;90.80;;;;;;5035798;28;20490;-63
2023/07/23 09:28:51;;;;;;;3.90;3.50;;;24.80;90.60;;;;;;5041126;28;20567;-63
2023/07/23 09:31:26;;;;;;;6.50;4.40;;;24.90;90.20;;;;;;5023285;28;20481;-63
2023/07/23 09:33:54;;;;;;;3.20;2.83;;;25.00;87.70;;;;;;5029404;28;20478;-62
2023/07/23 09:36:22;;;;;;;4.93;4.53;;;25.00;85.70;;;;;;5037690;28;21089;-63
2023/07/23 09:38:59;;;;;;;5.60;3.40;;;25.10;86.80;;;;;;5024005;28;20452;-62
2023/07/23 09:41:31;;;;;;;4.90;4.50;;;25.10;87.20;;;;;;5031356;28;20490;-64
2023/07/23 09:44:03;;;;;;;4.30;3.90;;;24.80;85.30;;;;;;5042383;28;20474;-63
2023/07/23 09:46:31;;;;;;;8.00;6.00;;;24.90;86.70;;;;;;5026832;28;20506;-62
2023/07/23 09:48:58;;;;;;;3.70;2.93;;;25.00;88.30;;;;;;5037048;28;20470;-63
2023/07/23 09:51:25;;;;;;;4.10;3.80;;;25.10;88.00;;;;;;5034369;28;20486;-63
2023/07/23 09:53:52;;;;;;;4.43;3.80;;;24.80;85.20;;;;;;5025879;28;20478;-62
2023/07/23 09:56:22;;;;;;;3.23;2.90;;;24.90;87.00;;;;;;5024841;28;20861;-63
2023/07/23 09:58:51;;;;;;;3.67;3.03;;;25.00;87.10;;;;;;5042172;28;20529;-62
2023/07/23 10:01:19;;;;;;;5.37;4.97;;;24.70;85.90;;;;;;5042247;28;20482;-63
2023/07/23 10:03:48;;;;;;;3.33;2.97;;;24.60;83.70;;;;;;5040877;28;20489;-62
2023/07/23 10:06:20;;;;;;;7.43;3.40;;;24.60;84.50;;;;;;5045733;28;20491;-63
2023/07/23 10:08:49;;;;;;;10.63;3.33;;;24.60;85.20;;;;;;5039233;28;20478;-63
2023/07/23 10:11:17;;;;;;;8.77;4.17;;;24.30;84.50;;;;;;5010127;28;20830;-63
2023/07/23 10:13:48;;;;;;;5.30;3.40;;;24.40;86.20;;;;;;5027996;28;20469;-63
2023/07/23 10:16:19;;;;;;;5.37;4.20;;;24.40;85.90;;;;;;5005291;28;20488;-63
2023/07/23 10:18:47;;;;;;;3.97;3.47;;;24.40;86.20;;;;;;5025537;28;20489;-63
2023/07/23 10:21:14;;;;;;;4.40;4.00;;;24.20;85.30;;;;;;5022264;28;20480;-63
2023/07/23 10:23:42;;;;;;;3.90;3.60;;;24.30;86.00;;;;;;5039475;28;20480;-63
2023/07/23 10:26:23;;;;;;;4.30;3.90;;;24.20;85.60;;;;;;5026998;28;20794;-62
2023/07/23 10:28:56;;;;;;;6.00;4.27;;;24.10;86.00;;;;;;5024844;28;20492;-63
2023/07/23 10:31:25;;;;;;;6.13;5.57;;;24.00;86.40;;;;;;5022347;28;21353;-62
2023/07/23 10:33:52;;;;;;;4.00;3.00;;;24.10;88.20;;;;;;5023096;28;20487;-62
2023/07/23 10:36:22;;;;;;;10.47;5.20;;;24.00;87.20;;;;;;5018824;28;21217;-62
2023/07/23 10:39:04;;;;;;;6.57;3.37;;;24.00;87.30;;;;;;5021494;28;20533;-62
2023/07/23 10:41:49;;;;;;;6.70;4.87;;;24.00;88.50;;;;;;5005172;28;20708;-62
2023/07/23 10:44:28;;;;;;;4.90;4.27;;;24.00;89.00;;;;;;5016897;28;20481;-62
2023/07/23 10:46:57;;;;;;;3.47;3.17;;;24.00;87.50;;;;;;5025638;28;20479;-62
2023/07/23 10:49:27;;;;;;;5.90;5.40;;;23.90;87.80;;;;;;5015189;28;20479;-62
2023/07/23 10:52:12;;;;;;;4.57;4.17;;;24.00;90.00;;;;;;5020640;28;20515;-63
2023/07/23 10:54:39;;;;;;;8.63;3.40;;;24.00;87.80;;;;;;5028329;28;20575;-62
2023/07/23 10:57:07;;;;;;;5.50;5.00;;;24.10;87.50;;;;;;5044934;28;20487;-62
2023/07/23 10:59:39;;;;;;;5.03;4.57;;;24.40;90.10;;;;;;5050498;28;20464;-62
2023/07/23 11:02:06;;;;;;;9.40;4.57;;;24.50;85.90;;;;;;5025314;28;21122;-63
2023/07/23 11:04:37;;;;;;;7.50;4.03;;;24.70;86.30;;;;;;5013357;28;20491;-63
2023/07/23 11:07:06;;;;;;;5.43;4.37;;;24.80;87.70;;;;;;5019333;28;20490;-63
2023/07/23 11:09:35;;;;;;;5.03;4.00;;;24.70;86.00;;;;;;5027553;28;20461;-63
2023/07/23 11:12:05;;;;;;;4.17;3.87;;;24.50;85.30;;;;;;5037474;28;20476;-63
2023/07/23 11:14:34;;;;;;;8.23;5.00;;;24.50;86.20;;;;;;5005964;28;20538;-62
2023/07/23 11:17:04;;;;;;;5.33;4.93;;;24.70;87.40;;;;;;5032982;28;20471;-63
2023/07/23 11:19:32;;;;;;;6.97;4.37;;;23.40;85.40;;;;;;5035096;28;20462;-63
2023/07/23 11:22:01;;;;;;;5.87;5.27;;;24.50;86.20;;;;;;5015402;28;21365;-64
2023/07/23 11:24:29;;;;;;;6.67;6.07;;;24.50;87.30;;;;;;5016798;28;20750;-63
2023/07/23 11:26:58;;;;;;;4.33;3.93;;;24.60;87.40;;;;;;5015158;28;20479;-63
2023/07/23 11:29:26;;;;;;;6.00;5.47;;;24.60;87.20;;;;;;5023868;28;20970;-62
2023/07/23 11:31:53;;;;;;;6.57;3.70;;;24.70;86.90;;;;;;5037141;28;20505;-62
2023/07/23 11:34:23;;;;;;;5.20;4.80;;;24.80;85.20;;;;;;5040490;28;20846;-62
2023/07/23 11:36:52;;;;;;;4.03;3.70;;;24.80;85.30;;;;;;5038095;28;21201;-62
2023/07/23 11:39:21;;;;;;;13.00;4.80;;;25.00;83.60;;;;;;5025833;28;20479;-63
2023/07/23 11:41:49;;;;;;;9.03;3.60;;;25.10;84.00;;;;;;5016746;28;20518;-62
2023/07/23 11:44:16;;;;;;;8.00;3.50;;;25.20;83.60;;;;;;5003029;28;21000;-63
2023/07/23 11:46:45;;;;;;;11.43;4.40;;;25.30;84.00;;;;;;5039534;28;20483;-63
2023/07/23 11:49:14;;;;;;;12.97;4.77;;;25.60;83.50;;;;;;5034429;28;20505;-63
2023/07/23 11:51:42;;;;;;;4.83;4.30;;;25.80;83.90;;;;;;5030602;28;20507;-63
2023/07/23 11:54:11;;;;;;;4.37;3.90;;;25.90;84.50;;;;;;5022814;28;20872;-62
2023/07/23 11:56:40;;;;;;;5.77;5.23;;;25.40;80.40;;;;;;5008721;28;20489;-62
2023/07/23 11:59:08;;;;;;;6.23;4.37;;;25.40;81.30;;;;;;5026321;28;21251;-63
2023/07/23 12:01:36;;;;;;;4.87;4.47;;;25.50;84.50;;;;;;5032015;28;20498;-63
2023/07/23 12:04:04;;;;;;;4.53;4.23;;;25.40;81.70;;;;;;5025360;28;20480;-62
2023/07/23 12:06:32;;;;;;;5.90;4.70;;;25.40;82.80;;;;;;5025656;28;20477;-61
2023/07/23 12:09:01;;;;;;;4.57;4.03;;;25.40;82.90;;;;;;5022865;28;21241;-62
2023/07/23 12:11:32;;;;;;;5.90;5.40;;;25.10;81.80;;;;;;5004443;28;20483;-62
2023/07/23 12:14:02;;;;;;;5.00;4.60;;;25.20;82.40;;;;;;5019744;28;20618;-62
2023/07/23 12:16:49;;;;;;;6.17;5.67;;;25.20;82.40;;;;;;5013206;28;20471;-62
2023/07/23 12:19:18;;;;;;;5.67;5.13;;;25.40;84.00;;;;;;5038038;28;21022;-62
2023/07/23 12:21:46;;;;;;;5.77;4.80;;;25.40;84.70;;;;;;5041905;28;20488;-62
2023/07/23 12:24:22;;;;;;;4.83;4.40;;;25.50;84.50;;;;;;5006309;28;20460;-61
2023/07/23 12:26:51;;;;;;;4.20;3.73;;;25.60;87.00;;;;;;5001306;28;20541;-61
2023/07/23 12:29:19;;;;;;;5.50;4.93;;;25.60;83.90;;;;;;5021178;28;20483;-63
2023/07/23 12:31:47;;;;;;;6.10;5.60;;;25.70;83.40;;;;;;5029997;28;20983;-63
2023/07/23 12:34:15;;;;;;;4.77;4.30;;;25.80;84.60;;;;;;5007568;28;20487;-63
2023/07/23 12:36:43;;;;;;;4.33;3.93;;;25.90;84.10;;;;;;5027207;28;20452;-63
2023/07/23 12:39:11;;;;;;;5.43;4.30;;;25.90;84.50;;;;;;5049136;27;21037;-63
2023/07/23 12:41:40;;;;;;;5.17;4.77;;;25.90;82.80;;;;;;5045420;27;20460;-63
2023/07/23 12:44:09;;;;;;;5.00;4.47;;;26.20;84.20;;;;;;5038682;28;20643;-63
2023/07/23 12:46:36;;;;;;;4.63;4.17;;;26.30;85.70;;;;;;5035194;28;20823;-62